sensor_id;sensor_type;location;lat;lon;timestamp;P1;durP1;ratioP1;P2;durP2;ratioP2
22480;SDS011;11407;56.964;-2.212;2023-01-06T00:01:29;6.70;;;1.20;;
22480;SDS011;11407;56.964;-2.212;2023-01-06T00:03:56;6.03;;;1.20;;
22480;SDS011;11407;56.964;-2.212;2023-01-06T00:06:23;5.33;;;1.30;;
22480;SDS011;11407;56.964;-2.212;2023-01-06T00:08:54;4.53;;;1.27;;
22480;SDS011;11407;56.964;-2.212;2023-01-06T00:11:21;6.30;;;1.20;;
22480;SDS011;11407;56.964;-2.212;2023-01-06T00:13:47;5.90;;;1.23;;
22480;SDS011;11407;56.964;-2.212;2023-01-06T00:16:13;5.13;;;1.50;;
22480;SDS011;11407;56.964;-2.212;2023-01-06T00:18:41;6.60;;;1.60;;
22480;SDS011;11407;56.964;-2.212;2023-01-06T00:21:08;3.77;;;1.17;;
22480;SDS011;11407;56.964;-2.212;2023-01-06T00:23:34;6.53;;;1.80;;
22480;SDS011;11407;56.964;-2.212;2023-01-06T00:26:00;5.50;;;1.17;;
22480;SDS011;11407;56.964;-2.212;2023-01-06T00:28:27;7.27;;;1.40;;
22480;SDS011;11407;56.964;-2.212;2023-01-06T00:30:52;3.53;;;1.50;;
22480;SDS011;11407;56.964;-2.212;2023-01-06T00:33:18;5.07;;;1.50;;
22480;SDS011;11407;56.964;-2.212;2023-01-06T00:35:44;3.87;;;1.20;;
22480;SDS011;11407;56.964;-2.212;2023-01-06T00:38:09;6.13;;;1.70;;
22480;SDS011;11407;56.964;-2.212;2023-01-06T00:40:35;4.53;;;1.10;;
22480;SDS011;11407;56.964;-2.212;2023-01-06T00:43:01;6.67;;;1.70;;
22480;SDS011;11407;56.964;-2.212;2023-01-06T00:45:28;5.57;;;1.43;;
22480;SDS011;11407;56.964;-2.212;2023-01-06T00:47:53;6.70;;;1.50;;
22480;SDS011;11407;56.964;-2.212;2023-01-06T00:50:18;6.13;;;1.60;;
22480;SDS011;11407;56.964;-2.212;2023-01-06T00:52:44;7.07;;;1.70;;
22480;SDS011;11407;56.964;-2.212;2023-01-06T00:55:11;7.07;;;1.50;;
22480;SDS011;11407;56.964;-2.212;2023-01-06T00:57:37;3.43;;;1.33;;
22480;SDS011;11407;56.964;-2.212;2023-01-06T01:00:03;6.10;;;1.43;;
22480;SDS011;11407;56.964;-2.212;2023-01-06T01:02:30;11.00;;;1.40;;
22480;SDS011;11407;56.964;-2.212;2023-01-06T01:04:55;4.87;;;1.40;;
22480;SDS011;11407;56.964;-2.212;2023-01-06T01:07:20;5.80;;;1.50;;
22480;SDS011;11407;56.964;-2.212;2023-01-06T01:09:46;3.97;;;1.20;;
22480;SDS011;11407;56.964;-2.212;2023-01-06T01:12:11;2.97;;;0.90;;
22480;SDS011;11407;56.964;-2.212;2023-01-06T01:14:42;3.97;;;1.50;;
22480;SDS011;11407;56.964;-2.212;2023-01-06T01:17:11;5.83;;;1.50;;
22480;SDS011;11407;56.964;-2.212;2023-01-06T01:19:38;7.23;;;1.40;;
22480;SDS011;11407;56.964;-2.212;2023-01-06T01:22:04;7.00;;;2.00;;
22480;SDS011;11407;56.964;-2.212;2023-01-06T01:24:29;9.37;;;1.97;;
22480;SDS011;11407;56.964;-2.212;2023-01-06T01:26:55;7.03;;;1.80;;
22480;SDS011;11407;56.964;-2.212;2023-01-06T01:29:20;4.80;;;1.57;;
22480;SDS011;11407;56.964;-2.212;2023-01-06T01:31:47;5.23;;;1.50;;
22480;SDS011;11407;56.964;-2.212;2023-01-06T01:34:13;5.67;;;1.50;;
22480;SDS011;11407;56.964;-2.212;2023-01-06T01:36:40;6.07;;;1.40;;
22480;SDS011;11407;56.964;-2.212;2023-01-06T01:39:06;3.30;;;1.40;;
22480;SDS011;11407;56.964;-2.212;2023-01-06T01:41:32;5.27;;;1.40;;
22480;SDS011;11407;56.964;-2.212;2023-01-06T01:44:00;6.90;;;1.50;;
22480;SDS011;11407;56.964;-2.212;2023-01-06T01:46:30;4.20;;;1.20;;
22480;SDS011;11407;56.964;-2.212;2023-01-06T01:49:22;5.27;;;1.50;;
22480;SDS011;11407;56.964;-2.212;2023-01-06T01:51:49;5.60;;;1.70;;
22480;SDS011;11407;56.964;-2.212;2023-01-06T01:54:19;4.00;;;1.60;;
22480;SDS011;11407;56.964;-2.212;2023-01-06T01:56:57;6.70;;;1.20;;
22480;SDS011;11407;56.964;-2.212;2023-01-06T01:59:28;3.30;;;1.20;;
22480;SDS011;11407;56.964;-2.212;2023-01-06T02:01:56;5.33;;;2.10;;
22480;SDS011;11407;56.964;-2.212;2023-01-06T02:04:22;5.07;;;1.57;;
22480;SDS011;11407;56.964;-2.212;2023-01-06T02:06:49;4.37;;;1.50;;
22480;SDS011;11407;56.964;-2.212;2023-01-06T02:09:27;4.23;;;1.20;;
22480;SDS011;11407;56.964;-2.212;2023-01-06T02:11:54;4.13;;;1.30;;
22480;SDS011;11407;56.964;-2.212;2023-01-06T02:14:21;7.17;;;1.60;;
22480;SDS011;11407;56.964;-2.212;2023-01-06T02:25:06;3.60;;;1.10;;
22480;SDS011;11407;56.964;-2.212;2023-01-06T02:33:51;4.13;;;1.33;;
22480;SDS011;11407;56.964;-2.212;2023-01-06T02:41:46;4.93;;;1.50;;
22480;SDS011;11407;56.964;-2.212;2023-01-06T02:44:32;7.73;;;1.73;;
22480;SDS011;11407;56.964;-2.212;2023-01-06T02:53:06;6.00;;;1.20;;
22480;SDS011;11407;56.964;-2.212;2023-01-06T02:55:43;4.40;;;1.50;;
22480;SDS011;11407;56.964;-2.212;2023-01-06T02:58:14;8.60;;;1.80;;
22480;SDS011;11407;56.964;-2.212;2023-01-06T03:00:51;6.00;;;1.67;;
22480;SDS011;11407;56.964;-2.212;2023-01-06T03:03:21;5.00;;;1.57;;
22480;SDS011;11407;56.964;-2.212;2023-01-06T03:05:51;9.13;;;1.90;;
22480;SDS011;11407;56.964;-2.212;2023-01-06T03:08:23;7.57;;;1.67;;
22480;SDS011;11407;56.964;-2.212;2023-01-06T03:10:51;3.80;;;1.20;;
22480;SDS011;11407;56.964;-2.212;2023-01-06T03:13:21;6.67;;;1.10;;
22480;SDS011;11407;56.964;-2.212;2023-01-06T03:15:52;6.90;;;1.53;;
22480;SDS011;11407;56.964;-2.212;2023-01-06T03:18:18;4.97;;;1.27;;
22480;SDS011;11407;56.964;-2.212;2023-01-06T03:20:45;7.23;;;1.30;;
22480;SDS011;11407;56.964;-2.212;2023-01-06T03:23:14;6.57;;;1.40;;
22480;SDS011;11407;56.964;-2.212;2023-01-06T03:25:39;6.20;;;1.20;;
22480;SDS011;11407;56.964;-2.212;2023-01-06T03:28:05;3.57;;;0.97;;
22480;SDS011;11407;56.964;-2.212;2023-01-06T03:30:36;5.67;;;1.30;;
22480;SDS011;11407;56.964;-2.212;2023-01-06T03:33:24;4.10;;;1.00;;
22480;SDS011;11407;56.964;-2.212;2023-01-06T03:41:26;3.17;;;0.90;;
22480;SDS011;11407;56.964;-2.212;2023-01-06T03:44:42;3.57;;;0.80;;
22480;SDS011;11407;56.964;-2.212;2023-01-06T03:47:16;3.87;;;1.00;;
22480;SDS011;11407;56.964;-2.212;2023-01-06T03:50:36;4.83;;;1.00;;
22480;SDS011;11407;56.964;-2.212;2023-01-06T03:58:35;8.83;;;1.07;;
22480;SDS011;11407;56.964;-2.212;2023-01-06T04:01:03;5.70;;;1.27;;
22480;SDS011;11407;56.964;-2.212;2023-01-06T04:03:29;6.57;;;1.43;;
22480;SDS011;11407;56.964;-2.212;2023-01-06T04:05:55;8.90;;;1.60;;
22480;SDS011;11407;56.964;-2.212;2023-01-06T04:08:21;3.47;;;1.13;;
22480;SDS011;11407;56.964;-2.212;2023-01-06T04:10:46;6.27;;;1.30;;
22480;SDS011;11407;56.964;-2.212;2023-01-06T04:13:12;8.87;;;1.57;;
22480;SDS011;11407;56.964;-2.212;2023-01-06T04:15:37;9.17;;;1.60;;
22480;SDS011;11407;56.964;-2.212;2023-01-06T04:18:03;5.80;;;1.43;;
22480;SDS011;11407;56.964;-2.212;2023-01-06T04:20:29;4.17;;;1.40;;
22480;SDS011;11407;56.964;-2.212;2023-01-06T04:22:55;3.33;;;1.17;;
22480;SDS011;11407;56.964;-2.212;2023-01-06T04:25:21;5.23;;;1.30;;
22480;SDS011;11407;56.964;-2.212;2023-01-06T04:27:48;7.67;;;1.77;;
22480;SDS011;11407;56.964;-2.212;2023-01-06T04:30:14;9.27;;;1.83;;
22480;SDS011;11407;56.964;-2.212;2023-01-06T04:32:39;6.00;;;1.30;;
22480;SDS011;11407;56.964;-2.212;2023-01-06T04:35:05;4.93;;;1.47;;
22480;SDS011;11407;56.964;-2.212;2023-01-06T04:37:31;7.57;;;1.27;;
22480;SDS011;11407;56.964;-2.212;2023-01-06T04:39:58;4.90;;;1.30;;
22480;SDS011;11407;56.964;-2.212;2023-01-06T04:42:23;3.83;;;1.27;;
22480;SDS011;11407;56.964;-2.212;2023-01-06T04:44:49;5.03;;;1.37;;
22480;SDS011;11407;56.964;-2.212;2023-01-06T04:47:14;9.03;;;1.50;;
22480;SDS011;11407;56.964;-2.212;2023-01-06T04:49:40;4.97;;;1.33;;
22480;SDS011;11407;56.964;-2.212;2023-01-06T04:52:05;7.20;;;1.57;;
22480;SDS011;11407;56.964;-2.212;2023-01-06T04:54:32;6.03;;;1.93;;
22480;SDS011;11407;56.964;-2.212;2023-01-06T04:56:59;6.70;;;1.37;;
22480;SDS011;11407;56.964;-2.212;2023-01-06T04:59:24;3.07;;;0.93;;
22480;SDS011;11407;56.964;-2.212;2023-01-06T05:01:50;4.83;;;1.33;;
22480;SDS011;11407;56.964;-2.212;2023-01-06T05:04:15;2.83;;;1.00;;
22480;SDS011;11407;56.964;-2.212;2023-01-06T05:06:40;7.47;;;1.40;;
22480;SDS011;11407;56.964;-2.212;2023-01-06T05:09:06;6.17;;;1.03;;
22480;SDS011;11407;56.964;-2.212;2023-01-06T05:11:32;4.70;;;1.13;;
22480;SDS011;11407;56.964;-2.212;2023-01-06T05:13:57;7.23;;;1.47;;
22480;SDS011;11407;56.964;-2.212;2023-01-06T05:16:23;6.20;;;1.50;;
22480;SDS011;11407;56.964;-2.212;2023-01-06T05:18:49;6.50;;;1.40;;
22480;SDS011;11407;56.964;-2.212;2023-01-06T05:21:16;7.07;;;1.20;;
22480;SDS011;11407;56.964;-2.212;2023-01-06T05:23:41;6.40;;;1.20;;
22480;SDS011;11407;56.964;-2.212;2023-01-06T05:26:08;10.33;;;2.00;;
22480;SDS011;11407;56.964;-2.212;2023-01-06T05:28:39;10.10;;;1.73;;
22480;SDS011;11407;56.964;-2.212;2023-01-06T05:31:04;9.97;;;2.03;;
22480;SDS011;11407;56.964;-2.212;2023-01-06T05:33:30;5.77;;;1.37;;
22480;SDS011;11407;56.964;-2.212;2023-01-06T05:36:01;6.17;;;1.60;;
22480;SDS011;11407;56.964;-2.212;2023-01-06T05:38:28;4.27;;;1.30;;
22480;SDS011;11407;56.964;-2.212;2023-01-06T05:40:54;6.90;;;1.23;;
22480;SDS011;11407;56.964;-2.212;2023-01-06T05:43:21;6.53;;;1.37;;
22480;SDS011;11407;56.964;-2.212;2023-01-06T05:45:47;9.80;;;1.70;;
22480;SDS011;11407;56.964;-2.212;2023-01-06T05:48:12;6.17;;;1.40;;
22480;SDS011;11407;56.964;-2.212;2023-01-06T05:50:38;9.03;;;1.60;;
22480;SDS011;11407;56.964;-2.212;2023-01-06T05:53:03;5.77;;;1.30;;
22480;SDS011;11407;56.964;-2.212;2023-01-06T05:55:29;4.23;;;1.40;;
22480;SDS011;11407;56.964;-2.212;2023-01-06T05:57:54;9.97;;;2.03;;
22480;SDS011;11407;56.964;-2.212;2023-01-06T06:00:20;5.87;;;1.17;;
22480;SDS011;11407;56.964;-2.212;2023-01-06T06:02:45;6.13;;;1.23;;
22480;SDS011;11407;56.964;-2.212;2023-01-06T06:05:11;7.50;;;1.27;;
22480;SDS011;11407;56.964;-2.212;2023-01-06T06:07:36;4.27;;;1.77;;
22480;SDS011;11407;56.964;-2.212;2023-01-06T06:10:02;3.67;;;0.97;;
22480;SDS011;11407;56.964;-2.212;2023-01-06T06:12:28;5.80;;;1.40;;
22480;SDS011;11407;56.964;-2.212;2023-01-06T06:14:54;4.13;;;1.23;;
22480;SDS011;11407;56.964;-2.212;2023-01-06T06:17:19;3.57;;;1.23;;
22480;SDS011;11407;56.964;-2.212;2023-01-06T06:19:45;5.03;;;1.20;;
22480;SDS011;11407;56.964;-2.212;2023-01-06T06:22:10;4.57;;;1.43;;
22480;SDS011;11407;56.964;-2.212;2023-01-06T06:24:36;5.97;;;1.50;;
22480;SDS011;11407;56.964;-2.212;2023-01-06T06:27:02;5.73;;;1.17;;
22480;SDS011;11407;56.964;-2.212;2023-01-06T06:29:28;5.77;;;1.37;;
22480;SDS011;11407;56.964;-2.212;2023-01-06T06:31:53;4.90;;;1.10;;
22480;SDS011;11407;56.964;-2.212;2023-01-06T06:34:18;4.43;;;1.00;;
22480;SDS011;11407;56.964;-2.212;2023-01-06T06:36:44;6.50;;;1.27;;
22480;SDS011;11407;56.964;-2.212;2023-01-06T06:39:09;5.20;;;1.00;;
22480;SDS011;11407;56.964;-2.212;2023-01-06T06:41:35;6.53;;;1.20;;
22480;SDS011;11407;56.964;-2.212;2023-01-06T06:44:00;5.73;;;0.93;;
22480;SDS011;11407;56.964;-2.212;2023-01-06T06:46:27;5.17;;;1.30;;
22480;SDS011;11407;56.964;-2.212;2023-01-06T06:48:53;7.70;;;1.50;;
22480;SDS011;11407;56.964;-2.212;2023-01-06T06:51:19;6.70;;;1.30;;
22480;SDS011;11407;56.964;-2.212;2023-01-06T06:53:46;5.93;;;1.50;;
22480;SDS011;11407;56.964;-2.212;2023-01-06T06:56:12;6.43;;;1.00;;
22480;SDS011;11407;56.964;-2.212;2023-01-06T06:58:39;4.90;;;1.10;;
22480;SDS011;11407;56.964;-2.212;2023-01-06T07:01:11;5.60;;;1.13;;
22480;SDS011;11407;56.964;-2.212;2023-01-06T07:03:39;2.70;;;0.80;;
22480;SDS011;11407;56.964;-2.212;2023-01-06T07:06:05;1.33;;;0.80;;
22480;SDS011;11407;56.964;-2.212;2023-01-06T07:08:32;2.97;;;1.00;;
22480;SDS011;11407;56.964;-2.212;2023-01-06T07:10:58;2.70;;;1.10;;
22480;SDS011;11407;56.964;-2.212;2023-01-06T07:13:24;4.50;;;1.00;;
22480;SDS011;11407;56.964;-2.212;2023-01-06T07:15:49;3.77;;;0.90;;
22480;SDS011;11407;56.964;-2.212;2023-01-06T07:18:15;3.23;;;1.00;;
22480;SDS011;11407;56.964;-2.212;2023-01-06T07:20:44;4.03;;;1.00;;
22480;SDS011;11407;56.964;-2.212;2023-01-06T07:23:11;2.73;;;0.70;;
22480;SDS011;11407;56.964;-2.212;2023-01-06T07:25:36;3.33;;;1.10;;
22480;SDS011;11407;56.964;-2.212;2023-01-06T07:28:02;2.63;;;0.87;;
22480;SDS011;11407;56.964;-2.212;2023-01-06T07:30:29;2.47;;;0.70;;
22480;SDS011;11407;56.964;-2.212;2023-01-06T07:32:55;3.47;;;0.90;;
22480;SDS011;11407;56.964;-2.212;2023-01-06T07:35:20;2.53;;;0.80;;
22480;SDS011;11407;56.964;-2.212;2023-01-06T07:37:46;2.67;;;0.80;;
22480;SDS011;11407;56.964;-2.212;2023-01-06T07:40:12;4.40;;;0.83;;
22480;SDS011;11407;56.964;-2.212;2023-01-06T07:42:37;1.97;;;0.80;;
22480;SDS011;11407;56.964;-2.212;2023-01-06T07:45:03;1.83;;;0.77;;
22480;SDS011;11407;56.964;-2.212;2023-01-06T07:47:29;1.23;;;0.77;;
22480;SDS011;11407;56.964;-2.212;2023-01-06T07:49:54;1.63;;;0.73;;
22480;SDS011;11407;56.964;-2.212;2023-01-06T07:52:20;3.53;;;0.83;;
22480;SDS011;11407;56.964;-2.212;2023-01-06T07:54:45;3.03;;;0.83;;
22480;SDS011;11407;56.964;-2.212;2023-01-06T07:57:11;3.03;;;0.87;;
22480;SDS011;11407;56.964;-2.212;2023-01-06T07:59:36;3.80;;;0.80;;
22480;SDS011;11407;56.964;-2.212;2023-01-06T08:02:02;3.93;;;0.90;;
22480;SDS011;11407;56.964;-2.212;2023-01-06T08:04:27;1.47;;;0.60;;
22480;SDS011;11407;56.964;-2.212;2023-01-06T08:06:52;3.73;;;0.73;;
22480;SDS011;11407;56.964;-2.212;2023-01-06T08:09:18;2.47;;;0.67;;
22480;SDS011;11407;56.964;-2.212;2023-01-06T08:11:43;1.57;;;0.67;;
22480;SDS011;11407;56.964;-2.212;2023-01-06T08:14:09;1.40;;;0.70;;
22480;SDS011;11407;56.964;-2.212;2023-01-06T08:16:38;0.83;;;0.50;;
22480;SDS011;11407;56.964;-2.212;2023-01-06T08:19:04;4.03;;;1.00;;
22480;SDS011;11407;56.964;-2.212;2023-01-06T08:21:30;3.03;;;0.70;;
22480;SDS011;11407;56.964;-2.212;2023-01-06T08:23:56;0.80;;;0.50;;
22480;SDS011;11407;56.964;-2.212;2023-01-06T08:26:21;5.37;;;1.00;;
22480;SDS011;11407;56.964;-2.212;2023-01-06T08:28:47;1.57;;;0.60;;
22480;SDS011;11407;56.964;-2.212;2023-01-06T08:31:14;2.93;;;0.60;;
22480;SDS011;11407;56.964;-2.212;2023-01-06T08:33:42;2.97;;;0.70;;
22480;SDS011;11407;56.964;-2.212;2023-01-06T08:36:08;1.57;;;0.70;;
22480;SDS011;11407;56.964;-2.212;2023-01-06T08:38:37;2.20;;;0.57;;
22480;SDS011;11407;56.964;-2.212;2023-01-06T08:41:03;2.03;;;0.70;;
22480;SDS011;11407;56.964;-2.212;2023-01-06T08:43:28;3.80;;;0.90;;
22480;SDS011;11407;56.964;-2.212;2023-01-06T08:45:59;4.30;;;0.90;;
22480;SDS011;11407;56.964;-2.212;2023-01-06T08:48:26;1.20;;;0.63;;
22480;SDS011;11407;56.964;-2.212;2023-01-06T08:50:52;2.37;;;0.80;;
22480;SDS011;11407;56.964;-2.212;2023-01-06T08:53:17;1.17;;;0.70;;
22480;SDS011;11407;56.964;-2.212;2023-01-06T08:55:43;3.07;;;1.00;;
22480;SDS011;11407;56.964;-2.212;2023-01-06T08:58:08;1.33;;;0.60;;
22480;SDS011;11407;56.964;-2.212;2023-01-06T09:00:35;2.77;;;0.80;;
22480;SDS011;11407;56.964;-2.212;2023-01-06T09:03:03;4.63;;;1.10;;
22480;SDS011;11407;56.964;-2.212;2023-01-06T09:05:28;4.77;;;1.07;;
22480;SDS011;11407;56.964;-2.212;2023-01-06T09:07:54;1.07;;;0.70;;
22480;SDS011;11407;56.964;-2.212;2023-01-06T09:10:19;2.93;;;0.80;;
22480;SDS011;11407;56.964;-2.212;2023-01-06T09:12:45;3.40;;;0.97;;
22480;SDS011;11407;56.964;-2.212;2023-01-06T09:15:11;4.73;;;1.17;;
22480;SDS011;11407;56.964;-2.212;2023-01-06T09:17:36;2.97;;;0.90;;
22480;SDS011;11407;56.964;-2.212;2023-01-06T09:20:02;2.43;;;0.90;;
22480;SDS011;11407;56.964;-2.212;2023-01-06T09:22:28;4.73;;;0.97;;
22480;SDS011;11407;56.964;-2.212;2023-01-06T09:24:54;4.53;;;1.00;;
22480;SDS011;11407;56.964;-2.212;2023-01-06T09:27:20;2.20;;;0.70;;
22480;SDS011;11407;56.964;-2.212;2023-01-06T09:29:45;2.57;;;1.00;;
22480;SDS011;11407;56.964;-2.212;2023-01-06T09:32:11;1.57;;;0.70;;
22480;SDS011;11407;56.964;-2.212;2023-01-06T09:34:36;2.37;;;0.77;;
22480;SDS011;11407;56.964;-2.212;2023-01-06T09:37:01;1.93;;;0.90;;
22480;SDS011;11407;56.964;-2.212;2023-01-06T09:39:27;2.20;;;0.83;;
22480;SDS011;11407;56.964;-2.212;2023-01-06T09:45:09;2.20;;;0.93;;
22480;SDS011;11407;56.964;-2.212;2023-01-06T09:47:51;1.70;;;0.70;;
22480;SDS011;11407;56.964;-2.212;2023-01-06T09:50:30;2.83;;;0.70;;
22480;SDS011;11407;56.964;-2.212;2023-01-06T09:55:50;1.93;;;0.77;;
22480;SDS011;11407;56.964;-2.212;2023-01-06T09:58:23;4.93;;;0.80;;
22480;SDS011;11407;56.964;-2.212;2023-01-06T10:00:55;1.73;;;0.90;;
22480;SDS011;11407;56.964;-2.212;2023-01-06T10:03:25;2.93;;;0.80;;
22480;SDS011;11407;56.964;-2.212;2023-01-06T10:06:01;1.60;;;0.60;;
22480;SDS011;11407;56.964;-2.212;2023-01-06T10:14:38;1.33;;;0.77;;
22480;SDS011;11407;56.964;-2.212;2023-01-06T10:20:07;1.60;;;0.80;;
22480;SDS011;11407;56.964;-2.212;2023-01-06T10:25:33;2.97;;;0.73;;
22480;SDS011;11407;56.964;-2.212;2023-01-06T10:28:47;2.20;;;0.80;;
22480;SDS011;11407;56.964;-2.212;2023-01-06T10:31:02;1.23;;;0.60;;
22480;SDS011;11407;56.964;-2.212;2023-01-06T10:33:33;3.57;;;0.87;;
22480;SDS011;11407;56.964;-2.212;2023-01-06T10:36:02;1.77;;;0.60;;
22480;SDS011;11407;56.964;-2.212;2023-01-06T10:38:44;2.20;;;0.70;;
22480;SDS011;11407;56.964;-2.212;2023-01-06T10:44:02;1.47;;;0.67;;
22480;SDS011;11407;56.964;-2.212;2023-01-06T10:46:30;2.57;;;1.53;;
22480;SDS011;11407;56.964;-2.212;2023-01-06T10:48:59;2.93;;;0.70;;
22480;SDS011;11407;56.964;-2.212;2023-01-06T10:51:39;2.73;;;1.07;;
22480;SDS011;11407;56.964;-2.212;2023-01-06T10:54:09;2.73;;;0.90;;
22480;SDS011;11407;56.964;-2.212;2023-01-06T10:56:38;2.40;;;1.20;;
22480;SDS011;11407;56.964;-2.212;2023-01-06T10:59:09;2.60;;;0.90;;
22480;SDS011;11407;56.964;-2.212;2023-01-06T11:01:46;1.87;;;0.90;;
22480;SDS011;11407;56.964;-2.212;2023-01-06T11:04:14;2.63;;;0.90;;
22480;SDS011;11407;56.964;-2.212;2023-01-06T11:06:58;2.93;;;1.00;;
22480;SDS011;11407;56.964;-2.212;2023-01-06T11:09:43;3.90;;;1.00;;
22480;SDS011;11407;56.964;-2.212;2023-01-06T11:12:13;3.93;;;0.90;;
22480;SDS011;11407;56.964;-2.212;2023-01-06T11:14:42;1.80;;;0.90;;
22480;SDS011;11407;56.964;-2.212;2023-01-06T11:17:22;4.03;;;0.93;;
22480;SDS011;11407;56.964;-2.212;2023-01-06T11:20:06;6.47;;;1.43;;
22480;SDS011;11407;56.964;-2.212;2023-01-06T11:22:52;5.87;;;1.27;;
22480;SDS011;11407;56.964;-2.212;2023-01-06T11:27:43;4.47;;;1.00;;
22480;SDS011;11407;56.964;-2.212;2023-01-06T11:30:20;4.23;;;1.40;;
22480;SDS011;11407;56.964;-2.212;2023-01-06T11:32:52;3.67;;;1.10;;
22480;SDS011;11407;56.964;-2.212;2023-01-06T11:35:19;2.63;;;1.00;;
22480;SDS011;11407;56.964;-2.212;2023-01-06T11:37:46;4.17;;;1.57;;
22480;SDS011;11407;56.964;-2.212;2023-01-06T11:42:50;3.70;;;1.20;;
22480;SDS011;11407;56.964;-2.212;2023-01-06T11:45:28;6.73;;;1.43;;
22480;SDS011;11407;56.964;-2.212;2023-01-06T11:48:05;3.83;;;1.10;;
22480;SDS011;11407;56.964;-2.212;2023-01-06T11:50:56;3.70;;;1.20;;
22480;SDS011;11407;56.964;-2.212;2023-01-06T11:53:24;6.10;;;1.30;;
22480;SDS011;11407;56.964;-2.212;2023-01-06T11:56:00;3.87;;;1.17;;
22480;SDS011;11407;56.964;-2.212;2023-01-06T12:01:19;2.70;;;1.00;;
22480;SDS011;11407;56.964;-2.212;2023-01-06T12:04:11;2.03;;;0.97;;
22480;SDS011;11407;56.964;-2.212;2023-01-06T12:06:43;4.40;;;1.20;;
22480;SDS011;11407;56.964;-2.212;2023-01-06T12:09:32;2.90;;;1.00;;
22480;SDS011;11407;56.964;-2.212;2023-01-06T12:12:03;3.30;;;0.80;;
22480;SDS011;11407;56.964;-2.212;2023-01-06T12:14:34;4.67;;;0.93;;
22480;SDS011;11407;56.964;-2.212;2023-01-06T12:24:50;3.80;;;0.97;;
22480;SDS011;11407;56.964;-2.212;2023-01-06T12:27:26;3.07;;;0.80;;
22480;SDS011;11407;56.964;-2.212;2023-01-06T12:30:04;3.57;;;0.90;;
22480;SDS011;11407;56.964;-2.212;2023-01-06T12:32:38;2.53;;;0.70;;
22480;SDS011;11407;56.964;-2.212;2023-01-06T12:35:10;3.23;;;0.90;;
22480;SDS011;11407;56.964;-2.212;2023-01-06T12:37:41;4.13;;;0.80;;
22480;SDS011;11407;56.964;-2.212;2023-01-06T12:48:22;3.80;;;0.80;;
22480;SDS011;11407;56.964;-2.212;2023-01-06T12:50:56;4.20;;;1.87;;
22480;SDS011;11407;56.964;-2.212;2023-01-06T12:53:30;2.30;;;0.80;;
22480;SDS011;11407;56.964;-2.212;2023-01-06T12:56:14;2.60;;;0.80;;
22480;SDS011;11407;56.964;-2.212;2023-01-06T13:17:43;2.47;;;0.90;;
22480;SDS011;11407;56.964;-2.212;2023-01-06T13:20:19;2.57;;;1.07;;
22480;SDS011;11407;56.964;-2.212;2023-01-06T13:23:29;7.00;;;1.10;;
22480;SDS011;11407;56.964;-2.212;2023-01-06T13:26:00;4.30;;;1.10;;
22480;SDS011;11407;56.964;-2.212;2023-01-06T13:31:24;2.47;;;0.90;;
22480;SDS011;11407;56.964;-2.212;2023-01-06T13:39:29;2.10;;;0.90;;
22480;SDS011;11407;56.964;-2.212;2023-01-06T13:41:59;3.67;;;0.90;;
22480;SDS011;11407;56.964;-2.212;2023-01-06T13:44:30;2.37;;;1.03;;
22480;SDS011;11407;56.964;-2.212;2023-01-06T13:47:02;4.23;;;0.80;;
22480;SDS011;11407;56.964;-2.212;2023-01-06T13:49:31;3.00;;;0.77;;
22480;SDS011;11407;56.964;-2.212;2023-01-06T13:51:58;3.00;;;0.70;;
22480;SDS011;11407;56.964;-2.212;2023-01-06T13:59:49;1.87;;;0.63;;
22480;SDS011;11407;56.964;-2.212;2023-01-06T14:04:55;2.20;;;0.60;;
22480;SDS011;11407;56.964;-2.212;2023-01-06T14:07:35;3.07;;;0.90;;
22480;SDS011;11407;56.964;-2.212;2023-01-06T14:10:03;4.53;;;1.20;;
22480;SDS011;11407;56.964;-2.212;2023-01-06T14:12:32;3.77;;;0.73;;
22480;SDS011;11407;56.964;-2.212;2023-01-06T14:15:02;4.23;;;1.10;;
22480;SDS011;11407;56.964;-2.212;2023-01-06T14:17:35;3.10;;;0.83;;
22480;SDS011;11407;56.964;-2.212;2023-01-06T14:20:04;2.80;;;0.90;;
22480;SDS011;11407;56.964;-2.212;2023-01-06T14:22:31;1.80;;;0.70;;
22480;SDS011;11407;56.964;-2.212;2023-01-06T14:25:02;1.70;;;0.80;;
22480;SDS011;11407;56.964;-2.212;2023-01-06T14:30:21;2.03;;;1.00;;
22480;SDS011;11407;56.964;-2.212;2023-01-06T14:35:14;3.27;;;0.90;;
22480;SDS011;11407;56.964;-2.212;2023-01-06T14:37:45;2.83;;;0.70;;
22480;SDS011;11407;56.964;-2.212;2023-01-06T14:40:18;2.77;;;0.90;;
22480;SDS011;11407;56.964;-2.212;2023-01-06T14:42:49;2.80;;;0.73;;
22480;SDS011;11407;56.964;-2.212;2023-01-06T14:45:25;1.43;;;0.70;;
22480;SDS011;11407;56.964;-2.212;2023-01-06T14:48:07;1.20;;;0.60;;
22480;SDS011;11407;56.964;-2.212;2023-01-06T14:50:39;3.20;;;0.60;;
22480;SDS011;11407;56.964;-2.212;2023-01-06T14:53:10;1.33;;;0.77;;
22480;SDS011;11407;56.964;-2.212;2023-01-06T14:55:46;0.93;;;0.60;;
22480;SDS011;11407;56.964;-2.212;2023-01-06T14:58:26;2.17;;;0.97;;
22480;SDS011;11407;56.964;-2.212;2023-01-06T15:01:02;2.10;;;1.10;;
22480;SDS011;11407;56.964;-2.212;2023-01-06T15:03:30;3.03;;;0.90;;
22480;SDS011;11407;56.964;-2.212;2023-01-06T15:08:47;1.77;;;0.80;;
22480;SDS011;11407;56.964;-2.212;2023-01-06T15:13:53;2.43;;;0.77;;
22480;SDS011;11407;56.964;-2.212;2023-01-06T15:18:47;1.73;;;0.80;;
22480;SDS011;11407;56.964;-2.212;2023-01-06T15:21:14;1.80;;;0.73;;
22480;SDS011;11407;56.964;-2.212;2023-01-06T15:23:43;2.90;;;0.60;;
22480;SDS011;11407;56.964;-2.212;2023-01-06T15:26:18;3.53;;;1.20;;
22480;SDS011;11407;56.964;-2.212;2023-01-06T15:28:59;3.93;;;1.00;;
22480;SDS011;11407;56.964;-2.212;2023-01-06T15:31:33;2.33;;;0.90;;
22480;SDS011;11407;56.964;-2.212;2023-01-06T15:34:02;1.87;;;0.90;;
22480;SDS011;11407;56.964;-2.212;2023-01-06T15:36:31;1.00;;;0.80;;
22480;SDS011;11407;56.964;-2.212;2023-01-06T15:38:59;1.83;;;0.67;;
22480;SDS011;11407;56.964;-2.212;2023-01-06T15:41:26;1.23;;;0.70;;
22480;SDS011;11407;56.964;-2.212;2023-01-06T15:44:24;1.03;;;0.70;;
22480;SDS011;11407;56.964;-2.212;2023-01-06T15:46:51;2.70;;;1.13;;
22480;SDS011;11407;56.964;-2.212;2023-01-06T15:49:57;1.87;;;1.17;;
22480;SDS011;11407;56.964;-2.212;2023-01-06T15:52:27;1.80;;;0.80;;
22480;SDS011;11407;56.964;-2.212;2023-01-06T15:54:57;1.80;;;1.20;;
22480;SDS011;11407;56.964;-2.212;2023-01-06T15:57:26;4.47;;;1.60;;
22480;SDS011;11407;56.964;-2.212;2023-01-06T15:59:56;5.00;;;2.27;;
22480;SDS011;11407;56.964;-2.212;2023-01-06T16:02:29;5.70;;;2.03;;
22480;SDS011;11407;56.964;-2.212;2023-01-06T16:04:56;3.10;;;1.57;;
22480;SDS011;11407;56.964;-2.212;2023-01-06T16:09:58;3.57;;;1.43;;
22480;SDS011;11407;56.964;-2.212;2023-01-06T16:12:24;3.10;;;1.50;;
22480;SDS011;11407;56.964;-2.212;2023-01-06T16:14:50;6.40;;;1.90;;
22480;SDS011;11407;56.964;-2.212;2023-01-06T16:17:19;2.87;;;1.20;;
22480;SDS011;11407;56.964;-2.212;2023-01-06T16:19:50;4.70;;;1.33;;
22480;SDS011;11407;56.964;-2.212;2023-01-06T16:27:45;4.53;;;1.30;;
22480;SDS011;11407;56.964;-2.212;2023-01-06T16:30:27;5.20;;;1.27;;
22480;SDS011;11407;56.964;-2.212;2023-01-06T16:32:54;3.87;;;1.40;;
22480;SDS011;11407;56.964;-2.212;2023-01-06T16:35:27;5.93;;;1.63;;
22480;SDS011;11407;56.964;-2.212;2023-01-06T16:37:54;8.27;;;1.90;;
22480;SDS011;11407;56.964;-2.212;2023-01-06T16:40:21;6.70;;;1.60;;
22480;SDS011;11407;56.964;-2.212;2023-01-06T16:42:48;3.93;;;1.43;;
22480;SDS011;11407;56.964;-2.212;2023-01-06T16:47:46;4.60;;;1.67;;
22480;SDS011;11407;56.964;-2.212;2023-01-06T16:52:43;5.47;;;1.40;;
22480;SDS011;11407;56.964;-2.212;2023-01-06T16:55:11;5.27;;;1.30;;
22480;SDS011;11407;56.964;-2.212;2023-01-06T16:57:38;6.37;;;1.30;;
22480;SDS011;11407;56.964;-2.212;2023-01-06T17:00:04;6.70;;;1.30;;
22480;SDS011;11407;56.964;-2.212;2023-01-06T17:02:36;4.87;;;1.10;;
22480;SDS011;11407;56.964;-2.212;2023-01-06T17:05:02;2.10;;;1.10;;
22480;SDS011;11407;56.964;-2.212;2023-01-06T17:07:35;7.67;;;1.90;;
22480;SDS011;11407;56.964;-2.212;2023-01-06T17:10:01;6.83;;;2.07;;